Time;durP1;ratioP1;P1;durP2;ratioP2;P2;SDS_P1;SDS_P2;PMS_P1;PMS_P2;Temp;Humidity;BMP_temperature;BMP_pressure;BME280_temperature;BME280_humidity;BME280_pressure;Samples;Min_cycle;Max_cycle;Signal;HPM_P1;HPM_P2
2023/07/24 00:01:17;;;;;;;3.90;3.53;;;;;;;;;;4931142;28;99717;-76
2023/07/24 00:03:44;;;;;;;3.17;2.95;;;;;;;;;;4930818;28;98451;-77
2023/07/24 00:06:11;;;;;;;3.63;3.33;;;;;;;;;;4932010;28;99653;-77
2023/07/24 00:08:38;;;;;;;4.35;2.88;;;;;;;;;;4930443;28;98900;-76
2023/07/24 00:11:07;;;;;;;3.47;3.28;;;;;;;;;;4929859;28;98355;-75
2023/07/24 00:13:34;;;;;;;3.10;2.90;;;;;;;;;;4933867;28;100208;-76
2023/07/24 00:16:00;;;;;;;3.30;3.05;;;;;;;;;;4931263;28;98332;-76
2023/07/24 00:18:26;;;;;;;3.45;3.15;;;;;;;;;;4930478;28;98672;-77
2023/07/24 00:20:56;;;;;;;3.47;2.83;;;;;;;;;;4931037;28;99929;-77
2023/07/24 00:23:22;;;;;;;3.33;3.03;;;;;;;;;;4930039;28;98265;-77
2023/07/24 00:25:49;;;;;;;4.07;2.63;;;;;;;;;;4918799;28;98975;-77
2023/07/24 00:28:15;;;;;;;2.70;2.50;;;;;;;;;;4911657;28;97984;-76
2023/07/24 00:30:42;;;;;;;3.28;2.92;;;;;;;;;;4910990;28;98274;-77
2023/07/24 00:33:08;;;;;;;3.47;3.28;;;;;;;;;;4926553;28;99404;-76
2023/07/24 00:35:37;;;;;;;3.72;2.67;;;;;;;;;;4912711;28;102081;-77
2023/07/24 00:38:04;;;;;;;3.47;3.08;;;;;;;;;;4910385;28;98564;-77
2023/07/24 00:40:30;;;;;;;2.65;2.53;;;;;;;;;;4930442;28;98838;-77
2023/07/24 00:42:57;;;;;;;3.55;2.80;;;;;;;;;;4930994;28;98196;-77
2023/07/24 00:45:26;;;;;;;2.92;2.72;;;;;;;;;;4929713;28;98625;-77
2023/07/24 00:47:53;;;;;;;5.53;3.20;;;;;;;;;;4930540;28;98782;-77
2023/07/24 00:50:22;;;;;;;3.05;2.85;;;;;;;;;;4927661;28;98270;-77
2023/07/24 00:52:50;;;;;;;2.50;2.40;;;;;;;;;;4929948;28;98517;-77
2023/07/24 00:55:17;;;;;;;2.90;2.70;;;;;;;;;;4930168;28;98715;-76
2023/07/24 00:57:43;;;;;;;2.83;2.55;;;;;;;;;;4934141;28;98244;-78
2023/07/24 01:00:10;;;;;;;3.03;2.83;;;;;;;;;;4928629;28;101054;-77
2023/07/24 01:02:37;;;;;;;3.85;2.67;;;;;;;;;;4930141;28;98212;-77
2023/07/24 01:05:04;;;;;;;3.05;2.85;;;;;;;;;;4930313;28;98608;-76
2023/07/24 01:07:31;;;;;;;3.08;2.88;;;;;;;;;;4930929;28;98844;-77
2023/07/24 01:09:58;;;;;;;3.25;2.95;;;;;;;;;;4933249;28;98992;-76
2023/07/24 01:12:32;;;;;;;3.40;2.95;;;;;;;;;;4932451;28;99348;-76
2023/07/24 01:15:03;;;;;;;2.85;2.65;;;;;;;;;;4939564;28;99106;-76
2023/07/24 01:17:31;;;;;;;3.00;2.70;;;;;;;;;;4916606;28;99196;-76
2023/07/24 01:19:58;;;;;;;2.75;2.65;;;;;;;;;;4910202;28;98810;-77
2023/07/24 01:22:28;;;;;;;2.92;2.72;;;;;;;;;;4909572;28;98326;-76
2023/07/24 01:25:01;;;;;;;3.00;2.80;;;;;;;;;;4910354;28;99359;-76
2023/07/24 01:27:28;;;;;;;3.17;2.72;;;;;;;;;;4909952;28;98896;-76
2023/07/24 01:29:54;;;;;;;3.03;2.75;;;;;;;;;;4910972;28;98274;-77
2023/07/24 01:32:21;;;;;;;3.22;2.78;;;;;;;;;;4924024;28;98493;-77
2023/07/24 01:34:49;;;;;;;2.85;2.65;;;;;;;;;;4929165;28;98727;-77
2023/07/24 01:37:16;;;;;;;3.45;3.15;;;;;;;;;;4928708;28;99055;-77
2023/07/24 01:39:43;;;;;;;2.95;2.70;;;;;;;;;;4933149;28;98395;-77
2023/07/24 01:42:11;;;;;;;3.17;2.97;;;;;;;;;;4928836;28;98339;-77
2023/07/24 01:44:37;;;;;;;2.90;2.70;;;;;;;;;;4928628;28;100121;-76
2023/07/24 01:47:04;;;;;;;3.45;2.90;;;;;;;;;;4929977;28;98840;-77
2023/07/24 01:49:30;;;;;;;2.83;2.63;;;;;;;;;;4928817;28;98180;-77
2023/07/24 01:51:57;;;;;;;3.15;2.85;;;;;;;;;;4929898;28;99557;-77
2023/07/24 01:54:24;;;;;;;3.22;3.03;;;;;;;;;;4927967;28;102533;-77
2023/07/24 01:56:52;;;;;;;3.05;2.72;;;;;;;;;;4929175;28;98426;-77
2023/07/24 01:59:18;;;;;;;3.30;3.08;;;;;;;;;;4927930;28;101233;-77
2023/07/24 02:01:45;;;;;;;3.70;3.40;;;;;;;;;;4930645;28;101680;-77
2023/07/24 02:04:11;;;;;;;2.90;2.70;;;;;;;;;;4910351;28;98355;-77
2023/07/24 02:06:42;;;;;;;2.92;2.60;;;;;;;;;;4928659;28;100031;-78
2023/07/24 02:09:10;;;;;;;2.80;2.55;;;;;;;;;;4928936;28;98402;-77
2023/07/24 02:11:36;;;;;;;3.10;2.80;;;;;;;;;;4929801;28;98518;-75
2023/07/24 02:14:03;;;;;;;3.75;2.95;;;;;;;;;;4927526;28;101519;-77
2023/07/24 02:16:29;;;;;;;3.50;2.50;;;;;;;;;;4929038;28;98174;-77
2023/07/24 02:18:56;;;;;;;4.45;2.90;;;;;;;;;;4933057;28;99510;-77
2023/07/24 02:21:23;;;;;;;4.53;2.75;;;;;;;;;;4932522;28;98811;-77
2023/07/24 02:23:49;;;;;;;3.58;3.15;;;;;;;;;;4934662;28;98401;-77
2023/07/24 02:26:16;;;;;;;4.05;2.70;;;;;;;;;;4932043;28;100431;-76
2023/07/24 02:28:46;;;;;;;3.60;3.30;;;;;;;;;;4934465;28;98150;-77
2023/07/24 02:31:13;;;;;;;5.78;3.40;;;;;;;;;;4930737;28;99560;-77
2023/07/24 02:33:40;;;;;;;3.47;3.17;;;;;;;;;;4930719;28;100874;-77
2023/07/24 02:36:11;;;;;;;3.47;3.17;;;;;;;;;;4932558;28;98200;-77
2023/07/24 02:38:40;;;;;;;3.50;3.20;;;;;;;;;;4931062;28;98470;-77
2023/07/24 02:41:08;;;;;;;3.67;3.42;;;;;;;;;;4932858;28;98831;-78
2023/07/24 02:43:36;;;;;;;3.50;3.20;;;;;;;;;;4932497;28;98161;-76
2023/07/24 02:46:02;;;;;;;3.25;3.05;;;;;;;;;;4935152;28;98257;-77
2023/07/24 02:48:30;;;;;;;3.53;3.22;;;;;;;;;;4930813;28;98241;-78
2023/07/24 02:50:57;;;;;;;3.72;3.45;;;;;;;;;;4924156;28;99595;-77
2023/07/24 02:53:25;;;;;;;3.95;3.65;;;;;;;;;;4912099;28;98917;-78
2023/07/24 02:55:52;;;;;;;4.60;3.47;;;;;;;;;;4913482;28;98045;-76
2023/07/24 02:58:18;;;;;;;7.63;4.00;;;;;;;;;;4931411;28;98387;-76
2023/07/24 03:00:45;;;;;;;3.67;3.42;;;;;;;;;;4931873;28;98985;-77
2023/07/24 03:03:12;;;;;;;9.68;4.32;;;;;;;;;;4929497;28;98296;-78
2023/07/24 03:05:43;;;;;;;3.78;3.55;;;;;;;;;;4930233;28;98776;-77
2023/07/24 03:08:10;;;;;;;3.55;3.35;;;;;;;;;;4933538;28;99093;-76
2023/07/24 03:10:41;;;;;;;3.42;3.22;;;;;;;;;;4915011;28;98052;-77
2023/07/24 03:13:09;;;;;;;3.65;3.35;;;;;;;;;;4934038;28;98790;-78
2023/07/24 03:15:35;;;;;;;3.42;3.22;;;;;;;;;;4951525;28;98177;-76
2023/07/24 03:18:02;;;;;;;3.80;3.50;;;;;;;;;;4927352;28;99346;-76
2023/07/24 03:20:33;;;;;;;3.58;3.33;;;;;;;;;;4926560;28;98694;-78
2023/07/24 03:22:59;;;;;;;3.17;2.97;;;;;;;;;;4930830;28;98268;-76
2023/07/24 03:25:25;;;;;;;4.00;3.60;;;;;;;;;;4930557;28;101382;-77
2023/07/24 03:27:52;;;;;;;5.85;4.18;;;;;;;;;;4933556;28;99012;-77
2023/07/24 03:30:19;;;;;;;3.55;3.35;;;;;;;;;;4931981;28;99776;-76
2023/07/24 03:32:46;;;;;;;4.22;3.85;;;;;;;;;;4931388;28;98865;-76
2023/07/24 03:35:13;;;;;;;3.53;3.30;;;;;;;;;;4930942;28;98255;-77
2023/07/24 03:37:39;;;;;;;6.40;3.97;;;;;;;;;;4930851;28;100616;-77
2023/07/24 03:40:07;;;;;;;3.95;3.65;;;;;;;;;;4930301;28;100079;-77
2023/07/24 03:42:34;;;;;;;3.97;3.70;;;;;;;;;;4930831;28;98227;-77
2023/07/24 03:45:00;;;;;;;4.07;3.72;;;;;;;;;;4932207;28;98384;-77
2023/07/24 03:47:27;;;;;;;4.97;3.65;;;;;;;;;;4929512;28;100184;-76
2023/07/24 03:49:54;;;;;;;4.22;3.92;;;;;;;;;;4934837;28;98304;-76
2023/07/24 03:52:21;;;;;;;4.13;3.83;;;;;;;;;;4930498;28;100011;-77
2023/07/24 03:54:47;;;;;;;4.80;4.40;;;;;;;;;;4930805;28;98386;-77
2023/07/24 03:57:14;;;;;;;6.45;4.55;;;;;;;;;;4931286;28;99598;-77
2023/07/24 03:59:40;;;;;;;4.13;3.83;;;;;;;;;;4931662;28;98997;-77
2023/07/24 04:02:07;;;;;;;4.45;4.05;;;;;;;;;;4930191;28;98544;-76
2023/07/24 04:04:36;;;;;;;4.70;4.40;;;;;;;;;;4931392;28;99326;-76
2023/07/24 04:07:03;;;;;;;5.72;3.92;;;;;;;;;;4930363;28;100749;-76
2023/07/24 04:09:30;;;;;;;5.25;4.20;;;;;;;;;;4930494;28;98013;-78
2023/07/24 04:11:56;;;;;;;7.43;4.68;;;;;;;;;;4933955;28;99652;-78
2023/07/24 04:14:23;;;;;;;8.73;4.63;;;;;;;;;;4930134;28;98281;-78
2023/07/24 04:16:49;;;;;;;4.95;4.55;;;;;;;;;;4929198;28;99463;-77
2023/07/24 04:19:16;;;;;;;4.95;4.65;;;;;;;;;;4930789;28;99837;-77
2023/07/24 04:21:42;;;;;;;4.47;4.18;;;;;;;;;;4931416;28;98324;-77
2023/07/24 04:24:10;;;;;;;5.22;4.60;;;;;;;;;;4930579;28;99747;-77
2023/07/24 04:26:37;;;;;;;5.15;4.75;;;;;;;;;;4929557;28;99228;-76
2023/07/24 04:29:03;;;;;;;5.30;4.80;;;;;;;;;;4930985;28;98222;-76
2023/07/24 04:31:30;;;;;;;4.90;4.53;;;;;;;;;;4929580;28;98807;-76
2023/07/24 04:33:56;;;;;;;6.75;4.70;;;;;;;;;;4933771;28;99967;-76
2023/07/24 04:36:23;;;;;;;6.22;5.50;;;;;;;;;;4930675;28;99499;-76
2023/07/24 04:38:49;;;;;;;5.07;4.60;;;;;;;;;;4930526;28;98902;-76
2023/07/24 04:41:16;;;;;;;5.32;4.78;;;;;;;;;;4928983;28;98474;-76
2023/07/24 04:43:43;;;;;;;5.55;5.05;;;;;;;;;;4929812;28;99672;-76
2023/07/24 04:46:09;;;;;;;5.10;4.60;;;;;;;;;;4930646;28;100835;-76
2023/07/24 04:48:36;;;;;;;5.50;5.00;;;;;;;;;;4930408;28;98361;-76
2023/07/24 04:51:02;;;;;;;5.95;5.32;;;;;;;;;;4930334;28;99552;-76
2023/07/24 04:53:29;;;;;;;6.30;5.28;;;;;;;;;;4930744;28;98024;-76
2023/07/24 04:55:56;;;;;;;6.03;5.03;;;;;;;;;;4943039;28;98312;-76
2023/07/24 04:58:22;;;;;;;6.38;4.80;;;;;;;;;;4948710;28;100514;-78
2023/07/24 05:00:48;;;;;;;5.05;4.60;;;;;;;;;;4950651;28;98451;-77
2023/07/24 05:03:17;;;;;;;6.15;5.60;;;;;;;;;;4930877;28;99429;-77
2023/07/24 05:05:43;;;;;;;6.82;5.18;;;;;;;;;;4928776;28;100923;-78
2023/07/24 05:08:13;;;;;;;6.00;5.18;;;;;;;;;;4929638;28;98313;-78
2023/07/24 05:10:39;;;;;;;6.30;5.00;;;;;;;;;;4930712;28;99396;-77
2023/07/24 05:13:06;;;;;;;5.43;4.90;;;;;;;;;;4934215;28;99946;-76
2023/07/24 05:15:32;;;;;;;6.88;5.22;;;;;;;;;;4920689;28;98209;-77
2023/07/24 05:17:59;;;;;;;6.35;5.22;;;;;;;;;;4927776;28;99403;-78
2023/07/24 05:20:25;;;;;;;9.05;4.75;;;;;;;;;;4909314;28;98222;-78
2023/07/24 05:22:54;;;;;;;6.05;4.85;;;;;;;;;;4916879;28;98680;-78
2023/07/24 05:25:21;;;;;;;7.72;4.95;;;;;;;;;;4917135;28;99876;-77
2023/07/24 05:27:47;;;;;;;6.20;5.60;;;;;;;;;;4913334;28;98009;-79
2023/07/24 05:30:15;;;;;;;5.80;5.30;;;;;;;;;;4916488;28;99000;-78
2023/07/24 05:32:42;;;;;;;7.30;5.35;;;;;;;;;;4931111;28;100187;-79
2023/07/24 05:35:08;;;;;;;9.90;4.97;;;;;;;;;;4925217;28;98220;-78
2023/07/24 05:37:34;;;;;;;5.30;4.80;;;;;;;;;;4930980;28;99675;-78
2023/07/24 05:40:01;;;;;;;7.20;5.28;;;;;;;;;;4921756;28;98532;-79
2023/07/24 05:42:27;;;;;;;5.68;5.15;;;;;;;;;;4936223;28;99619;-78
2023/07/24 05:44:54;;;;;;;10.32;5.70;;;;;;;;;;4929838;28;100093;-77
2023/07/24 05:47:20;;;;;;;10.10;5.00;;;;;;;;;;4928775;28;98483;-77
2023/07/24 05:49:47;;;;;;;7.72;5.78;;;;;;;;;;4925895;28;99671;-78
2023/07/24 05:52:13;;;;;;;8.38;5.03;;;;;;;;;;4920997;28;99329;-77
2023/07/24 05:54:40;;;;;;;7.75;5.68;;;;;;;;;;4930622;28;98705;-78
2023/07/24 05:57:06;;;;;;;6.22;5.03;;;;;;;;;;4933456;28;98761;-78
2023/07/24 05:59:33;;;;;;;6.63;4.60;;;;;;;;;;4935864;28;99837;-78
2023/07/24 06:01:59;;;;;;;10.10;4.72;;;;;;;;;;4932887;28;98586;-79
2023/07/24 06:04:26;;;;;;;5.10;4.70;;;;;;;;;;4938884;28;100288;-78
2023/07/24 06:06:52;;;;;;;5.32;4.88;;;;;;;;;;4931472;28;98644;-80
2023/07/24 06:09:19;;;;;;;7.65;4.60;;;;;;;;;;4931724;28;98565;-79
2023/07/24 06:11:47;;;;;;;7.05;4.35;;;;;;;;;;4932862;28;100046;-79
2023/07/24 06:14:14;;;;;;;5.05;4.50;;;;;;;;;;4931970;28;98339;-78
2023/07/24 06:16:40;;;;;;;4.78;4.38;;;;;;;;;;4931191;28;99736;-78
2023/07/24 06:19:07;;;;;;;6.78;5.55;;;;;;;;;;4932104;28;98964;-78
2023/07/24 06:21:34;;;;;;;5.55;4.50;;;;;;;;;;4936091;28;98220;-78
2023/07/24 06:24:00;;;;;;;6.20;5.15;;;;;;;;;;4932014;28;99351;-80
2023/07/24 06:26:26;;;;;;;12.35;4.50;;;;;;;;;;4932695;28;98358;-80
2023/07/24 06:28:53;;;;;;;5.38;3.63;;;;;;;;;;4931542;28;99798;-79
2023/07/24 06:31:20;;;;;;;3.95;3.60;;;;;;;;;;4932013;28;99357;-81
2023/07/24 06:33:46;;;;;;;4.68;3.42;;;;;;;;;;4932710;28;97938;-81
2023/07/24 06:36:13;;;;;;;4.80;3.25;;;;;;;;;;4919422;28;99461;-81
2023/07/24 06:38:41;;;;;;;8.35;4.35;;;;;;;;;;4927608;28;99253;-82
2023/07/24 06:41:09;;;;;;;3.85;3.55;;;;;;;;;;4914039;28;98035;-82
2023/07/24 06:43:36;;;;;;;9.95;4.10;;;;;;;;;;4915349;28;99859;-82
2023/07/24 06:46:03;;;;;;;7.35;3.58;;;;;;;;;;4913231;28;98213;-81
2023/07/24 06:48:30;;;;;;;10.77;3.70;;;;;;;;;;4913514;28;99370;-81
2023/07/24 06:50:56;;;;;;;4.03;3.47;;;;;;;;;;4920910;28;99999;-81
2023/07/24 06:53:23;;;;;;;4.15;3.20;;;;;;;;;;4913933;28;98241;-81
2023/07/24 06:55:49;;;;;;;5.60;3.55;;;;;;;;;;4930160;28;98555;-81
2023/07/24 06:58:16;;;;;;;4.30;3.35;;;;;;;;;;4912917;28;98813;-80
2023/07/24 07:00:42;;;;;;;5.70;3.55;;;;;;;;;;4912524;28;98467;-82
2023/07/24 07:03:09;;;;;;;6.38;3.80;;;;;;;;;;4912754;28;98760;-82
2023/07/24 07:05:35;;;;;;;4.50;3.30;;;;;;;;;;4914976;28;99881;-81
2023/07/24 07:08:02;;;;;;;5.47;3.35;;;;;;;;;;4914309;28;99468;-81
2023/07/24 07:10:30;;;;;;;3.17;2.88;;;;;;;;;;4929570;28;100193;-81
2023/07/24 07:12:56;;;;;;;5.47;3.20;;;;;;;;;;4930838;28;98294;-81
2023/07/24 07:15:23;;;;;;;5.57;3.42;;;;;;;;;;4931800;28;99434;-82
2023/07/24 07:17:49;;;;;;;5.13;2.92;;;;;;;;;;4925094;28;99886;-81
2023/07/24 07:20:16;;;;;;;4.57;3.40;;;;;;;;;;4917660;28;99136;-81
2023/07/24 07:22:42;;;;;;;5.50;3.75;;;;;;;;;;4913029;28;99491;-81
2023/07/24 07:25:09;;;;;;;5.45;3.20;;;;;;;;;;4920617;28;98999;-81
2023/07/24 07:27:35;;;;;;;6.07;3.35;;;;;;;;;;4934921;28;98064;-80
2023/07/24 07:30:02;;;;;;;4.40;3.17;;;;;;;;;;4932218;28;98735;-80
2023/07/24 07:32:28;;;;;;;6.45;3.00;;;;;;;;;;4930389;28;98308;-81
2023/07/24 07:34:55;;;;;;;3.95;3.20;;;;;;;;;;4931895;28;98777;-80
2023/07/24 07:37:22;;;;;;;7.13;3.13;;;;;;;;;;4934457;28;99205;-80
2023/07/24 07:39:48;;;;;;;4.75;3.00;;;;;;;;;;4942031;28;98516;-79
2023/07/24 07:42:15;;;;;;;8.15;3.30;;;;;;;;;;4943105;28;99416;-79
2023/07/24 07:44:45;;;;;;;9.85;3.42;;;;;;;;;;4932849;28;99016;-81
2023/07/24 07:47:11;;;;;;;3.42;3.13;;;;;;;;;;4949487;28;98292;-81
2023/07/24 07:49:40;;;;;;;8.45;3.15;;;;;;;;;;4932514;28;100524;-81
2023/07/24 07:52:08;;;;;;;6.57;3.20;;;;;;;;;;4928335;28;97797;-80
2023/07/24 07:54:35;;;;;;;6.47;3.50;;;;;;;;;;4928440;28;99696;-80
2023/07/24 07:57:01;;;;;;;6.78;3.15;;;;;;;;;;4956468;28;98795;-79
2023/07/24 07:59:28;;;;;;;5.13;3.42;;;;;;;;;;4939149;28;98284;-81
2023/07/24 08:01:55;;;;;;;4.55;3.08;;;;;;;;;;4935565;28;99868;-81
2023/07/24 08:04:21;;;;;;;4.18;3.00;;;;;;;;;;4934810;28;100208;-81
2023/07/24 08:06:48;;;;;;;4.57;3.10;;;;;;;;;;4943903;28;98257;-79
2023/07/24 08:09:14;;;;;;;5.45;3.38;;;;;;;;;;4937384;28;98736;-80
2023/07/24 08:11:41;;;;;;;4.13;3.08;;;;;;;;;;4935876;28;98755;-80
2023/07/24 08:14:07;;;;;;;8.07;3.80;;;;;;;;;;4931844;28;99960;-81
2023/07/24 08:16:34;;;;;;;4.78;3.33;;;;;;;;;;4935224;28;99877;-80
2023/07/24 08:19:01;;;;;;;4.93;3.50;;;;;;;;;;4933203;28;98264;-81
2023/07/24 08:21:27;;;;;;;6.60;3.42;;;;;;;;;;4931005;28;99431;-80
2023/07/24 08:23:53;;;;;;;7.63;3.38;;;;;;;;;;4939064;28;99004;-80
2023/07/24 08:26:20;;;;;;;6.45;3.17;;;;;;;;;;4934791;28;98276;-81
2023/07/24 08:28:46;;;;;;;4.20;3.22;;;;;;;;;;4932382;28;99553;-80
2023/07/24 08:31:14;;;;;;;4.13;3.13;;;;;;;;;;4931610;28;98911;-82
2023/07/24 08:33:41;;;;;;;3.42;3.13;;;;;;;;;;4937048;28;98121;-81
2023/07/24 08:36:07;;;;;;;5.30;3.22;;;;;;;;;;4920965;28;99832;-81
2023/07/24 08:38:34;;;;;;;3.20;2.90;;;;;;;;;;4918827;28;98212;-81
2023/07/24 08:41:08;;;;;;;6.50;3.95;;;;;;;;;;4926778;28;99402;-81
2023/07/24 08:43:35;;;;;;;7.22;4.07;;;;;;;;;;4919815;28;99478;-81
2023/07/24 08:46:02;;;;;;;7.85;3.22;;;;;;;;;;4918852;28;98211;-81
2023/07/24 08:48:29;;;;;;;4.63;3.13;;;;;;;;;;4913256;28;100161;-84
2023/07/24 08:50:57;;;;;;;6.20;2.63;;;;;;;;;;4922983;28;99656;-82
2023/07/24 08:53:23;;;;;;;3.83;3.03;;;;;;;;;;4934998;28;98213;-80
2023/07/24 08:55:51;;;;;;;3.70;3.08;;;;;;;;;;4930559;28;99194;-77
2023/07/24 08:58:17;;;;;;;6.15;3.40;;;;;;;;;;4929849;28;98306;-80
2023/07/24 09:00:43;;;;;;;5.38;3.65;;;;;;;;;;4930473;28;99774;-80
2023/07/24 09:03:10;;;;;;;8.07;3.60;;;;;;;;;;4930686;28;100015;-80
2023/07/24 09:05:37;;;;;;;4.60;2.72;;;;;;;;;;4929987;28;98203;-80
2023/07/24 09:08:03;;;;;;;5.15;3.08;;;;;;;;;;4930265;28;99346;-81
2023/07/24 09:10:30;;;;;;;4.75;3.10;;;;;;;;;;4929478;28;99923;-80
2023/07/24 09:12:56;;;;;;;3.42;3.00;;;;;;;;;;4929649;28;98247;-80
2023/07/24 09:15:25;;;;;;;4.85;3.17;;;;;;;;;;4932542;28;99690;-80
2023/07/24 09:17:52;;;;;;;6.57;2.88;;;;;;;;;;4929723;28;98489;-79
2023/07/24 09:20:20;;;;;;;4.30;3.58;;;;;;;;;;4918436;28;98623;-80
2023/07/24 09:22:57;;;;;;;3.38;3.10;;;;;;;;;;4913901;28;100486;-80
2023/07/24 09:25:42;;;;;;;3.75;3.45;;;;;;;;;;4930063;28;98120;-80
2023/07/24 09:28:12;;;;;;;5.10;3.30;;;;;;;;;;4934073;28;99627;-80
2023/07/24 09:30:39;;;;;;;3.58;3.38;;;;;;;;;;4933830;28;100133;-80
2023/07/24 09:33:06;;;;;;;4.88;3.50;;;;;;;;;;4933356;28;98335;-80
2023/07/24 09:35:33;;;;;;;4.20;3.28;;;;;;;;;;4938202;28;98782;-78
2023/07/24 09:38:09;;;;;;;8.35;3.47;;;;;;;;;;4952330;28;97870;-80
2023/07/24 09:40:43;;;;;;;7.97;3.50;;;;;;;;;;4949586;28;98084;-80
2023/07/24 09:43:15;;;;;;;5.63;3.35;;;;;;;;;;4933715;28;99061;-81
2023/07/24 09:46:03;;;;;;;5.10;3.75;;;;;;;;;;4932993;28;98140;-80
2023/07/24 09:48:31;;;;;;;8.45;3.65;;;;;;;;;;4933300;28;99691;-81
2023/07/24 09:51:00;;;;;;;4.80;3.53;;;;;;;;;;4938753;28;99971;-79
2023/07/24 09:53:32;;;;;;;5.88;3.67;;;;;;;;;;4939646;28;98233;-79
2023/07/24 09:56:01;;;;;;;5.70;3.95;;;;;;;;;;4933524;28;99465;-79
2023/07/24 09:58:28;;;;;;;3.72;3.42;;;;;;;;;;4935869;28;99898;-79
2023/07/24 10:00:54;;;;;;;5.80;4.47;;;;;;;;;;4931714;28;99411;-80
2023/07/24 10:03:21;;;;;;;7.35;3.95;;;;;;;;;;4918234;28;98784;-79
2023/07/24 10:05:48;;;;;;;6.63;3.53;;;;;;;;;;4912712;28;98208;-82
2023/07/24 10:08:16;;;;;;;3.38;3.05;;;;;;;;;;4929303;28;98771;-80
2023/07/24 10:10:42;;;;;;;4.55;3.10;;;;;;;;;;4913855;28;100220;-82
2023/07/24 10:13:10;;;;;;;9.00;3.78;;;;;;;;;;4924921;28;98254;-78
2023/07/24 10:15:37;;;;;;;4.03;2.70;;;;;;;;;;4942294;28;99409;-79
2023/07/24 10:18:06;;;;;;;5.60;3.15;;;;;;;;;;4937474;28;100280;-80
2023/07/24 10:20:34;;;;;;;5.43;3.10;;;;;;;;;;4935951;28;98231;-78
2023/07/24 10:23:03;;;;;;;4.50;3.47;;;;;;;;;;4932104;28;99835;-79
2023/07/24 10:25:33;;;;;;;3.50;3.00;;;;;;;;;;4931668;28;98251;-80
2023/07/24 10:28:07;;;;;;;8.30;3.22;;;;;;;;;;4933306;28;98759;-79
2023/07/24 10:30:34;;;;;;;5.65;2.92;;;;;;;;;;4932663;28;99723;-79
2023/07/24 10:33:05;;;;;;;4.20;2.50;;;;;;;;;;4932867;28;98405;-78
2023/07/24 10:35:48;;;;;;;5.00;3.15;;;;;;;;;;4931960;28;99891;-78
2023/07/24 10:38:15;;;;;;;6.68;3.53;;;;;;;;;;4931946;28;97936;-81
2023/07/24 10:40:42;;;;;;;5.65;2.65;;;;;;;;;;4933142;28;98247;-80
2023/07/24 10:43:10;;;;;;;5.80;3.03;;;;;;;;;;4935909;28;99477;-80
2023/07/24 10:45:50;;;;;;;3.00;2.80;;;;;;;;;;4933809;28;98237;-84
2023/07/24 10:48:18;;;;;;;4.05;3.20;;;;;;;;;;4933441;28;98394;-83
2023/07/24 10:50:45;;;;;;;4.45;3.40;;;;;;;;;;4931686;28;99940;-82
2023/07/24 10:53:13;;;;;;;5.15;3.17;;;;;;;;;;4932132;28;98253;-78
2023/07/24 10:55:39;;;;;;;6.30;3.22;;;;;;;;;;4932835;28;99413;-78
2023/07/24 10:58:06;;;;;;;7.80;3.83;;;;;;;;;;4931788;28;100111;-78
2023/07/24 11:00:35;;;;;;;9.98;3.50;;;;;;;;;;4932346;28;98321;-79
2023/07/24 11:03:02;;;;;;;5.75;2.88;;;;;;;;;;4932006;28;99647;-78
2023/07/24 11:05:29;;;;;;;5.72;3.53;;;;;;;;;;4931187;28;98920;-79
2023/07/24 11:07:55;;;;;;;4.38;2.75;;;;;;;;;;4915442;28;99549;-77
2023/07/24 11:10:22;;;;;;;4.75;3.42;;;;;;;;;;4911676;28;99293;-79
2023/07/24 11:12:50;;;;;;;7.10;3.08;;;;;;;;;;4925855;28;98281;-79
2023/07/24 11:15:23;;;;;;;5.45;3.45;;;;;;;;;;4940347;28;99624;-79
2023/07/24 11:17:49;;;;;;;5.25;3.40;;;;;;;;;;4931326;28;99991;-79
2023/07/24 11:20:16;;;;;;;4.40;3.20;;;;;;;;;;4928641;28;99121;-79
2023/07/24 11:22:43;;;;;;;4.60;2.97;;;;;;;;;;4912882;28;99946;-79
2023/07/24 11:25:10;;;;;;;4.72;3.13;;;;;;;;;;4912151;28;99137;-76
2023/07/24 11:27:41;;;;;;;4.47;3.28;;;;;;;;;;4916221;28;98255;-78
2023/07/24 11:30:08;;;;;;;3.03;2.72;;;;;;;;;;4912436;28;99397;-77
2023/07/24 11:32:35;;;;;;;3.55;3.17;;;;;;;;;;4911864;28;98246;-78
2023/07/24 11:35:02;;;;;;;4.20;3.10;;;;;;;;;;4912525;28;99408;-78
2023/07/24 11:37:29;;;;;;;3.40;2.90;;;;;;;;;;4912474;28;99032;-77
2023/07/24 11:39:57;;;;;;;5.68;3.40;;;;;;;;;;4911117;28;98262;-78
2023/07/24 11:42:27;;;;;;;4.38;3.20;;;;;;;;;;4912095;28;99430;-78
2023/07/24 11:44:53;;;;;;;3.20;3.00;;;;;;;;;;4919161;28;99140;-78
2023/07/24 11:47:20;;;;;;;5.07;3.05;;;;;;;;;;4933722;28;98364;-77
2023/07/24 11:49:56;;;;;;;4.35;2.90;;;;;;;;;;4935868;28;99371;-76
2023/07/24 11:52:22;;;;;;;10.00;3.55;;;;;;;;;;4937801;28;99363;-76
2023/07/24 11:54:57;;;;;;;6.30;3.15;;;;;;;;;;4945822;28;98896;-77
2023/07/24 11:57:24;;;;;;;4.70;2.80;;;;;;;;;;4931326;28;100483;-77
2023/07/24 11:59:53;;;;;;;4.40;2.97;;;;;;;;;;4930731;28;98497;-76
2023/07/24 12:02:19;;;;;;;7.00;3.10;;;;;;;;;;4931087;28;98558;-79
2023/07/24 12:04:46;;;;;;;10.45;3.65;;;;;;;;;;4930520;28;99942;-78
2023/07/24 12:07:13;;;;;;;3.72;3.05;;;;;;;;;;4929724;28;98739;-77
2023/07/24 12:09:39;;;;;;;5.15;3.88;;;;;;;;;;4934049;28;99659;-78
2023/07/24 12:12:08;;;;;;;5.72;3.50;;;;;;;;;;4931296;28;98261;-77
2023/07/24 12:14:34;;;;;;;7.85;3.15;;;;;;;;;;4930309;28;98250;-77
2023/07/24 12:17:02;;;;;;;7.53;3.50;;;;;;;;;;4931138;28;99929;-77
2023/07/24 12:19:28;;;;;;;4.78;3.75;;;;;;;;;;4930883;28;98206;-77
2023/07/24 12:21:55;;;;;;;8.85;3.03;;;;;;;;;;4930808;28;99417;-77
2023/07/24 12:24:21;;;;;;;5.53;3.25;;;;;;;;;;4930414;28;99842;-78
2023/07/24 12:26:47;;;;;;;5.50;3.03;;;;;;;;;;4931313;28;98392;-77
2023/07/24 12:29:14;;;;;;;2.63;2.42;;;;;;;;;;4929257;28;99463;-77
2023/07/24 12:31:41;;;;;;;3.92;3.10;;;;;;;;;;4934269;28;100089;-77
2023/07/24 12:34:07;;;;;;;4.97;3.05;;;;;;;;;;4933368;28;99373;-77
2023/07/24 12:36:34;;;;;;;6.53;3.20;;;;;;;;;;4929780;28;100044;-77
2023/07/24 12:39:00;;;;;;;3.58;2.75;;;;;;;;;;4931467;28;98261;-77
2023/07/24 12:41:27;;;;;;;7.63;3.53;;;;;;;;;;4930593;28;99401;-78
2023/07/24 12:43:54;;;;;;;5.55;3.75;;;;;;;;;;4930089;28;99086;-77
2023/07/24 12:46:20;;;;;;;7.05;3.42;;;;;;;;;;4930741;28;98246;-78
2023/07/24 12:48:49;;;;;;;9.15;3.40;;;;;;;;;;4930131;28;99626;-77
2023/07/24 12:51:16;;;;;;;10.98;4.40;;;;;;;;;;4930357;28;100227;-79
2023/07/24 12:53:42;;;;;;;9.00;3.72;;;;;;;;;;4933444;28;98230;-78
2023/07/24 12:56:25;;;;;;;5.55;2.75;;;;;;;;;;4929576;28;99914;-78
2023/07/24 12:58:52;;;;;;;2.20;2.00;;;;;;;;;;4930598;28;98256;-77
2023/07/24 13:01:18;;;;;;;2.65;2.35;;;;;;;;;;4929628;28;99755;-77
2023/07/24 13:03:44;;;;;;;1.88;1.58;;;;;;;;;;4929575;28;100082;-77
2023/07/24 13:06:11;;;;;;;1.63;1.50;;;;;;;;;;4929880;28;98684;-77
2023/07/24 13:08:37;;;;;;;2.38;1.50;;;;;;;;;;4930208;28;99443;-77
2023/07/24 13:11:04;;;;;;;2.63;1.63;;;;;;;;;;4929731;28;98864;-77
2023/07/24 13:13:31;;;;;;;4.05;2.85;;;;;;;;;;4930438;28;99257;-77
2023/07/24 13:15:57;;;;;;;4.43;1.60;;;;;;;;;;4929986;28;100158;-78
2023/07/24 13:18:24;;;;;;;4.25;2.10;;;;;;;;;;4925959;28;98215;-77
2023/07/24 13:20:55;;;;;;;2.58;2.38;;;;;;;;;;4927392;28;100139;-76
2023/07/24 13:23:21;;;;;;;2.47;2.25;;;;;;;;;;4910323;28;99953;-76
2023/07/24 13:25:48;;;;;;;3.30;2.78;;;;;;;;;;4926560;28;99718;-78
2023/07/24 13:28:14;;;;;;;5.30;3.13;;;;;;;;;;4946704;28;99449;-77
2023/07/24 13:30:41;;;;;;;5.63;3.42;;;;;;;;;;4949891;28;98844;-76
2023/07/24 13:33:07;;;;;;;4.90;3.00;;;;;;;;;;4948852;28;98233;-77
2023/07/24 13:35:34;;;;;;;3.78;3.47;;;;;;;;;;4949821;28;99351;-77
2023/07/24 13:38:00;;;;;;;3.97;3.25;;;;;;;;;;4952337;28;98955;-77
2023/07/24 13:40:27;;;;;;;4.10;3.75;;;;;;;;;;4949372;28;99665;-77
2023/07/24 13:42:53;;;;;;;4.68;4.25;;;;;;;;;;4948724;28;99088;-77
2023/07/24 13:45:20;;;;;;;7.63;4.70;;;;;;;;;;4948523;28;98391;-77
2023/07/24 13:47:46;;;;;;;6.82;5.15;;;;;;;;;;4949107;28;98571;-77
2023/07/24 13:50:13;;;;;;;5.68;4.55;;;;;;;;;;4948979;28;99951;-78
2023/07/24 13:52:39;;;;;;;7.50;4.78;;;;;;;;;;4950817;28;98399;-77
2023/07/24 13:55:06;;;;;;;7.07;5.25;;;;;;;;;;4954730;28;99410;-78
2023/07/24 13:57:32;;;;;;;5.45;4.90;;;;;;;;;;4956399;28;99304;-77
2023/07/24 13:59:59;;;;;;;7.00;4.97;;;;;;;;;;4949040;28;99440;-79
2023/07/24 14:02:25;;;;;;;4.03;2.97;;;;;;;;;;4940989;28;99059;-78
2023/07/24 14:04:53;;;;;;;8.95;4.50;;;;;;;;;;4928841;28;98212;-78
2023/07/24 14:07:19;;;;;;;5.60;4.43;;;;;;;;;;4925251;28;98780;-79
2023/07/24 14:09:46;;;;;;;7.70;5.50;;;;;;;;;;4927839;28;100045;-80
2023/07/24 14:12:12;;;;;;;5.68;5.10;;;;;;;;;;4927537;28;98349;-80
2023/07/24 14:14:41;;;;;;;6.05;4.38;;;;;;;;;;4931960;28;99558;-80
2023/07/24 14:17:07;;;;;;;10.18;4.20;;;;;;;;;;4930815;28;99023;-79
2023/07/24 14:19:33;;;;;;;4.40;4.00;;;;;;;;;;4931332;28;99760;-80
2023/07/24 14:22:01;;;;;;;5.13;3.85;;;;;;;;;;4928396;28;99930;-78
2023/07/24 14:24:28;;;;;;;11.45;3.80;;;;;;;;;;4931274;28;98291;-79
2023/07/24 14:26:54;;;;;;;3.25;2.15;;;;;;;;;;4927149;28;99487;-79
2023/07/24 14:29:21;;;;;;;2.92;1.75;;;;;;;;;;4929122;28;99840;-80
2023/07/24 14:31:47;;;;;;;3.80;2.08;;;;;;;;;;4932204;28;98231;-79
2023/07/24 14:34:13;;;;;;;1.92;1.58;;;;;;;;;;4932427;28;99413;-79
2023/07/24 14:36:40;;;;;;;2.45;2.08;;;;;;;;;;4931980;28;100276;-78
2023/07/24 14:39:07;;;;;;;4.32;1.80;;;;;;;;;;4932959;28;98224;-79
2023/07/24 14:41:34;;;;;;;1.48;1.38;;;;;;;;;;4934585;28;99365;-78